Time;durP1;ratioP1;P1;durP2;ratioP2;P2;SDS_P1;SDS_P2;PMS_P1;PMS_P2;Temp;Humidity;BMP_temperature;BMP_pressure;BME280_temperature;BME280_humidity;BME280_pressure;Samples;Min_cycle;Max_cycle;Signal;HPM_P1;HPM_P2
2022/05/23 00:01:19;;;;;;;8.48;5.43;;;;;;;;;;5009013;28;20096;-63
2022/05/23 00:03:44;;;;;;;9.23;5.40;;;;;;;;;;5006050;28;20578;-63
2022/05/23 00:06:10;;;;;;;8.20;5.40;;;;;;;;;;5009086;28;20118;-64
2022/05/23 00:08:35;;;;;;;9.43;5.47;;;;;;;;;;5006249;28;20030;-63
2022/05/23 00:11:00;;;;;;;7.63;5.25;;;;;;;;;;5007125;28;20046;-63
2022/05/23 00:13:27;;;;;;;11.02;5.75;;;;;;;;;;5003989;28;20053;-64
2022/05/23 00:15:53;;;;;;;9.82;6.10;;;;;;;;;;5003092;28;20036;-64
2022/05/23 00:18:18;;;;;;;11.35;6.40;;;;;;;;;;5004960;28;20034;-63
2022/05/23 00:20:43;;;;;;;10.25;6.13;;;;;;;;;;5009085;28;20022;-63
2022/05/23 00:23:09;;;;;;;9.38;5.78;;;;;;;;;;5004988;28;20030;-63
2022/05/23 00:25:34;;;;;;;8.68;5.10;;;;;;;;;;5005491;28;20057;-63
2022/05/23 00:28:00;;;;;;;7.65;5.60;;;;;;;;;;5006266;28;20040;-63
2022/05/23 00:30:27;;;;;;;9.23;6.15;;;;;;;;;;5008369;28;20033;-63
2022/05/23 00:35:37;;;;;;;9.57;5.75;;;;;;;;;;5006084;28;20529;-64
2022/05/23 00:38:03;;;;;;;8.15;5.70;;;;;;;;;;5005416;28;20064;-63
2022/05/23 00:40:31;;;;;;;9.57;6.05;;;;;;;;;;4997056;28;20061;-63
2022/05/23 00:43:14;;;;;;;10.15;6.15;;;;;;;;;;5009250;28;20065;-64
2022/05/23 00:45:52;;;;;;;10.75;6.55;;;;;;;;;;5009406;28;20052;-63
2022/05/23 00:48:21;;;;;;;8.70;5.68;;;;;;;;;;5002029;28;20042;-63
2022/05/23 00:50:51;;;;;;;9.60;6.00;;;;;;;;;;5008378;28;20033;-63
2022/05/23 00:53:30;;;;;;;9.25;5.78;;;;;;;;;;5008105;28;20033;-64
2022/05/23 00:55:56;;;;;;;9.90;5.97;;;;;;;;;;5000564;28;20049;-64
2022/05/23 00:58:27;;;;;;;8.23;5.82;;;;;;;;;;5002747;28;20590;-64
2022/05/23 01:00:56;;;;;;;9.75;6.05;;;;;;;;;;5007971;28;20030;-63
2022/05/23 01:03:21;;;;;;;10.95;6.70;;;;;;;;;;5008290;28;20038;-63
2022/05/23 01:05:48;;;;;;;12.30;6.70;;;;;;;;;;5008839;28;20518;-64
2022/05/23 01:08:15;;;;;;;10.13;6.30;;;;;;;;;;5008932;28;20483;-63
2022/05/23 01:10:41;;;;;;;8.90;6.15;;;;;;;;;;5004640;28;20073;-63
2022/05/23 01:18:17;;;;;;;11.27;6.15;;;;;;;;;;1291012;26;20070;-65
2022/05/23 01:20:46;;;;;;;9.50;6.22;;;;;;;;;;4928189;29;20055;-65
2022/05/23 01:23:26;;;;;;;9.38;6.20;;;;;;;;;;4955295;28;20074;-65
2022/05/23 01:25:52;;;;;;;9.70;6.50;;;;;;;;;;4948314;28;20446;-65
2022/05/23 01:28:17;;;;;;;11.52;6.97;;;;;;;;;;4947579;28;20810;-65
2022/05/23 01:30:44;;;;;;;12.57;6.93;;;;;;;;;;4936047;28;20101;-65
2022/05/23 01:33:10;;;;;;;11.15;6.75;;;;;;;;;;4947357;28;20047;-65
2022/05/23 01:35:37;;;;;;;8.50;6.35;;;;;;;;;;4947369;28;20061;-65
2022/05/23 01:38:03;;;;;;;11.07;7.00;;;;;;;;;;4946030;28;20031;-66
2022/05/23 01:40:29;;;;;;;12.23;7.03;;;;;;;;;;4937501;28;20067;-65
2022/05/23 01:42:55;;;;;;;10.30;7.03;;;;;;;;;;4947196;28;20047;-65
2022/05/23 01:45:29;;;;;;;10.20;7.03;;;;;;;;;;4947357;28;20058;-66
2022/05/23 01:47:56;;;;;;;13.65;7.18;;;;;;;;;;4946850;28;20031;-65
2022/05/23 01:50:23;;;;;;;10.63;6.90;;;;;;;;;;4941770;29;20023;-65
2022/05/23 01:52:49;;;;;;;11.50;6.97;;;;;;;;;;4947220;28;20042;-65
2022/05/23 01:55:14;;;;;;;11.25;7.60;;;;;;;;;;4946554;28;20055;-65
2022/05/23 01:57:40;;;;;;;13.13;7.00;;;;;;;;;;4946674;28;20407;-65
2022/05/23 02:02:51;;;;;;;11.23;7.03;;;;;;;;;;4940022;29;20031;-65
2022/05/23 02:05:17;;;;;;;11.13;6.97;;;;;;;;;;4942272;29;20035;-65
2022/05/23 02:07:43;;;;;;;9.90;6.80;;;;;;;;;;4943822;28;20066;-65
2022/05/23 02:10:09;;;;;;;11.75;6.90;;;;;;;;;;4945660;28;20047;-65
2022/05/23 02:12:35;;;;;;;11.95;7.22;;;;;;;;;;4962828;28;20081;-65
2022/05/23 02:15:01;;;;;;;10.00;7.03;;;;;;;;;;4946376;28;20510;-66
2022/05/23 02:17:26;;;;;;;11.32;7.45;;;;;;;;;;4940162;28;20110;-65
2022/05/23 02:19:51;;;;;;;11.48;7.90;;;;;;;;;;4943194;28;20051;-65
2022/05/23 02:22:17;;;;;;;11.52;7.47;;;;;;;;;;4945767;28;20109;-65
2022/05/23 02:24:42;;;;;;;12.57;8.00;;;;;;;;;;4941823;28;20035;-65
2022/05/23 02:27:08;;;;;;;13.77;7.80;;;;;;;;;;4945613;28;20055;-65
2022/05/23 02:29:34;;;;;;;11.95;7.82;;;;;;;;;;4937284;28;20032;-65
2022/05/23 02:32:00;;;;;;;10.73;6.85;;;;;;;;;;4934436;28;20420;-65
2022/05/23 02:34:25;;;;;;;12.95;7.57;;;;;;;;;;4937280;28;20046;-65
2022/05/23 02:36:51;;;;;;;12.40;7.40;;;;;;;;;;4939777;28;20035;-65
2022/05/23 02:39:17;;;;;;;12.18;7.05;;;;;;;;;;4943157;28;20142;-65
2022/05/23 02:41:42;;;;;;;13.30;7.40;;;;;;;;;;4993289;28;20112;-65
2022/05/23 02:44:08;;;;;;;12.82;8.05;;;;;;;;;;5027723;28;20476;-65
2022/05/23 02:46:34;;;;;;;13.02;7.03;;;;;;;;;;4974392;28;20036;-65
2022/05/23 02:48:59;;;;;;;14.90;8.95;;;;;;;;;;4946288;28;20557;-65
2022/05/23 02:51:25;;;;;;;10.90;7.57;;;;;;;;;;4943595;28;20035;-65
2022/05/23 02:53:51;;;;;;;11.80;8.15;;;;;;;;;;4946015;28;20547;-66
2022/05/23 02:56:17;;;;;;;12.98;7.63;;;;;;;;;;4939552;28;20031;-65
2022/05/23 02:58:42;;;;;;;10.43;7.28;;;;;;;;;;4976286;28;20427;-65
2022/05/23 03:01:09;;;;;;;13.98;7.45;;;;;;;;;;4944550;28;20133;-66
2022/05/23 03:03:34;;;;;;;9.68;7.38;;;;;;;;;;4936377;28;20043;-65
2022/05/23 03:06:00;;;;;;;15.10;7.50;;;;;;;;;;4942890;28;20042;-65
2022/05/23 03:08:27;;;;;;;12.93;6.88;;;;;;;;;;4947024;28;20085;-65
2022/05/23 03:10:56;;;;;;;12.88;7.18;;;;;;;;;;4937314;28;20479;-65
2022/05/23 03:13:22;;;;;;;10.40;7.10;;;;;;;;;;4944147;28;20096;-65
2022/05/23 03:15:47;;;;;;;11.35;6.72;;;;;;;;;;4942651;28;20038;-65
2022/05/23 03:18:13;;;;;;;11.02;7.80;;;;;;;;;;4973983;28;20434;-65
2022/05/23 03:20:39;;;;;;;12.13;7.72;;;;;;;;;;4942036;28;20047;-65
2022/05/23 03:28:33;;;;;;;13.25;7.85;;;;;;;;;;4941320;28;20062;-65
2022/05/23 03:30:58;;;;;;;13.13;7.93;;;;;;;;;;4945374;28;20039;-65
2022/05/23 03:33:24;;;;;;;13.25;8.65;;;;;;;;;;4945688;28;20043;-65
2022/05/23 03:35:49;;;;;;;13.88;8.10;;;;;;;;;;4941612;28;20036;-65
2022/05/23 03:38:14;;;;;;;15.38;8.35;;;;;;;;;;4953239;28;20028;-65
2022/05/23 03:40:41;;;;;;;17.35;8.45;;;;;;;;;;4945000;28;20043;-65
2022/05/23 03:43:07;;;;;;;10.90;7.65;;;;;;;;;;4944797;28;20475;-65
2022/05/23 03:45:33;;;;;;;12.80;8.13;;;;;;;;;;4952516;28;20040;-65
2022/05/23 03:48:00;;;;;;;14.65;8.50;;;;;;;;;;4933645;28;20035;-65
2022/05/23 03:50:28;;;;;;;14.68;8.32;;;;;;;;;;4942162;28;20110;-65
2022/05/23 03:52:53;;;;;;;10.30;7.82;;;;;;;;;;4939121;28;20065;-65
2022/05/23 03:55:20;;;;;;;13.45;7.88;;;;;;;;;;4934017;28;20032;-66
2022/05/23 03:57:45;;;;;;;12.48;8.02;;;;;;;;;;4940588;28;20062;-65
2022/05/23 04:00:14;;;;;;;14.63;7.78;;;;;;;;;;4937632;28;20044;-65
2022/05/23 04:02:41;;;;;;;13.73;8.18;;;;;;;;;;4943118;29;20097;-66
2022/05/23 04:05:10;;;;;;;12.25;7.97;;;;;;;;;;4943951;28;20050;-66
2022/05/23 04:07:37;;;;;;;12.82;7.82;;;;;;;;;;4947842;28;20043;-66
2022/05/23 04:10:09;;;;;;;12.95;8.27;;;;;;;;;;4935474;28;20042;-65
2022/05/23 04:12:36;;;;;;;10.40;7.78;;;;;;;;;;4944025;28;20038;-66
2022/05/23 04:15:02;;;;;;;12.82;7.65;;;;;;;;;;4943682;28;20019;-65
2022/05/23 04:17:27;;;;;;;13.30;8.80;;;;;;;;;;4944861;28;20542;-65
2022/05/23 04:19:53;;;;;;;13.07;8.38;;;;;;;;;;4939759;28;20192;-65
2022/05/23 04:22:18;;;;;;;13.40;8.05;;;;;;;;;;4940112;28;20035;-65
2022/05/23 04:24:43;;;;;;;12.35;8.20;;;;;;;;;;4942596;28;20567;-65
2022/05/23 04:27:08;;;;;;;21.23;9.02;;;;;;;;;;4954577;28;20389;-65
2022/05/23 04:29:34;;;;;;;14.98;8.00;;;;;;;;;;4940777;29;20714;-65
2022/05/23 04:31:59;;;;;;;13.68;8.10;;;;;;;;;;4944060;28;20035;-65
2022/05/23 04:37:09;;;;;;;14.02;8.52;;;;;;;;;;4940162;28;20063;-64
2022/05/23 04:39:34;;;;;;;14.80;8.02;;;;;;;;;;4942913;28;20556;-65
2022/05/23 04:42:00;;;;;;;14.65;8.02;;;;;;;;;;4936871;28;20028;-64
2022/05/23 04:44:27;;;;;;;13.38;7.97;;;;;;;;;;4944427;28;20034;-65
2022/05/23 04:49:42;;;;;;;14.48;8.40;;;;;;;;;;4946636;28;20541;-65
2022/05/23 04:52:12;;;;;;;14.23;8.18;;;;;;;;;;4936875;28;20052;-66
2022/05/23 04:54:39;;;;;;;16.13;8.35;;;;;;;;;;4937551;28;20031;-64
2022/05/23 04:57:06;;;;;;;11.90;8.25;;;;;;;;;;4941129;28;20031;-64
2022/05/23 04:59:31;;;;;;;14.80;8.25;;;;;;;;;;4942937;28;20521;-65
2022/05/23 05:01:57;;;;;;;16.40;8.30;;;;;;;;;;4941117;28;20035;-65
2022/05/23 05:04:22;;;;;;;15.40;9.10;;;;;;;;;;4953894;28;20069;-65
2022/05/23 05:06:47;;;;;;;13.90;8.35;;;;;;;;;;4941638;28;20042;-64
2022/05/23 05:09:13;;;;;;;14.35;9.13;;;;;;;;;;4933800;28;20113;-65
2022/05/23 05:11:38;;;;;;;12.82;8.48;;;;;;;;;;4943687;28;20027;-65
2022/05/23 05:14:06;;;;;;;15.57;9.00;;;;;;;;;;4940474;28;20115;-64
2022/05/23 05:16:32;;;;;;;14.25;8.63;;;;;;;;;;4937331;28;20416;-64
2022/05/23 05:18:58;;;;;;;19.90;9.25;;;;;;;;;;4934136;28;20048;-64
2022/05/23 05:21:23;;;;;;;14.93;8.82;;;;;;;;;;4935024;28;20104;-64
2022/05/23 05:23:49;;;;;;;12.90;8.35;;;;;;;;;;4942671;28;20023;-64
2022/05/23 05:26:14;;;;;;;17.02;8.57;;;;;;;;;;4950193;28;20114;-65
2022/05/23 05:28:40;;;;;;;16.33;9.00;;;;;;;;;;4937264;28;20043;-65
2022/05/23 05:31:22;;;;;;;16.58;8.95;;;;;;;;;;4939451;28;20036;-65
2022/05/23 05:33:53;;;;;;;15.02;9.15;;;;;;;;;;4941047;28;20048;-65
2022/05/23 05:36:23;;;;;;;13.48;9.10;;;;;;;;;;4941101;28;20044;-65
2022/05/23 05:38:58;;;;;;;14.32;9.35;;;;;;;;;;4943736;28;20046;-65
2022/05/23 05:41:29;;;;;;;19.33;9.23;;;;;;;;;;4943786;28;20031;-65
2022/05/23 05:44:02;;;;;;;17.02;9.40;;;;;;;;;;4944554;28;20078;-64
2022/05/23 05:46:31;;;;;;;18.57;9.43;;;;;;;;;;4941258;28;20048;-65
2022/05/23 05:49:01;;;;;;;18.20;9.70;;;;;;;;;;5027667;28;20633;-64
2022/05/23 05:51:27;;;;;;;21.88;10.02;;;;;;;;;;5017462;28;20188;-65
2022/05/23 05:53:53;;;;;;;15.45;10.20;;;;;;;;;;4943100;28;20080;-64
2022/05/23 05:56:19;;;;;;;16.20;9.57;;;;;;;;;;4941795;28;20474;-65
2022/05/23 05:58:45;;;;;;;18.60;9.23;;;;;;;;;;4943858;28;20039;-65
2022/05/23 06:01:10;;;;;;;17.52;9.77;;;;;;;;;;4946491;28;20035;-65
2022/05/23 06:03:36;;;;;;;16.48;10.07;;;;;;;;;;4942566;28;20047;-65
2022/05/23 06:11:30;;;;;;;31.75;9.90;;;;;;;;;;4942246;28;20126;-65
2022/05/23 06:13:57;;;;;;;29.13;9.48;;;;;;;;;;4940683;28;20122;-65
2022/05/23 06:16:29;;;;;;;31.67;10.43;;;;;;;;;;4965419;28;20048;-65
2022/05/23 06:18:54;;;;;;;33.83;10.60;;;;;;;;;;4950940;28;20632;-65
2022/05/23 06:21:24;;;;;;;30.33;9.63;;;;;;;;;;4941074;28;20031;-65
2022/05/23 06:23:49;;;;;;;24.92;9.25;;;;;;;;;;4937785;28;20035;-65
2022/05/23 06:26:17;;;;;;;30.20;8.75;;;;;;;;;;4941783;28;20039;-65
2022/05/23 06:28:43;;;;;;;25.52;9.00;;;;;;;;;;4943933;28;20071;-65
2022/05/23 06:31:09;;;;;;;25.17;9.73;;;;;;;;;;4941259;28;20135;-65
2022/05/23 06:33:36;;;;;;;28.35;8.93;;;;;;;;;;4934388;28;20043;-65
2022/05/23 06:36:03;;;;;;;24.98;8.32;;;;;;;;;;4934214;28;20035;-65
2022/05/23 06:38:28;;;;;;;33.13;9.20;;;;;;;;;;4934736;28;20027;-65
2022/05/23 06:40:54;;;;;;;34.90;9.30;;;;;;;;;;4936760;28;20050;-65
2022/05/23 06:43:19;;;;;;;41.50;9.15;;;;;;;;;;4936731;28;20573;-65
2022/05/23 06:45:46;;;;;;;30.00;8.25;;;;;;;;;;4948315;28;20051;-65
2022/05/23 06:48:12;;;;;;;35.15;7.82;;;;;;;;;;4944980;28;20706;-65
2022/05/23 06:50:38;;;;;;;29.85;9.50;;;;;;;;;;4943551;28;20495;-65
2022/05/23 06:53:03;;;;;;;37.88;8.02;;;;;;;;;;4945720;28;20043;-65
2022/05/23 06:55:29;;;;;;;33.17;7.28;;;;;;;;;;4941589;28;20040;-65
2022/05/23 06:57:54;;;;;;;20.35;7.68;;;;;;;;;;4953898;28;20078;-65
2022/05/23 07:00:20;;;;;;;14.77;6.57;;;;;;;;;;4967093;28;20055;-65
2022/05/23 07:02:46;;;;;;;11.48;6.72;;;;;;;;;;4939614;28;20066;-65
2022/05/23 07:13:24;;;;;;;13.18;5.88;;;;;;;;;;4938236;29;20157;-65
2022/05/23 07:15:50;;;;;;;12.25;5.50;;;;;;;;;;4943333;28;20138;-65
2022/05/23 07:18:18;;;;;;;10.48;5.25;;;;;;;;;;4936932;28;20047;-65
2022/05/23 07:20:44;;;;;;;13.80;6.13;;;;;;;;;;4940665;29;20035;-65
2022/05/23 07:23:11;;;;;;;11.10;7.03;;;;;;;;;;4936951;28;20571;-65
2022/05/23 07:25:37;;;;;;;18.38;10.25;;;;;;;;;;4939303;28;20043;-65
2022/05/23 07:28:02;;;;;;;19.88;11.38;;;;;;;;;;4938512;28;20054;-65
2022/05/23 07:30:28;;;;;;;20.80;11.43;;;;;;;;;;4941370;28;20649;-65
2022/05/23 07:32:54;;;;;;;19.55;12.25;;;;;;;;;;4957782;28;20149;-65
2022/05/23 07:35:19;;;;;;;24.58;14.15;;;;;;;;;;4943191;28;20075;-65
2022/05/23 07:37:45;;;;;;;24.52;14.80;;;;;;;;;;4941387;28;20055;-65
2022/05/23 07:40:11;;;;;;;18.45;11.70;;;;;;;;;;4939101;28;20126;-65
2022/05/23 07:42:37;;;;;;;23.33;14.38;;;;;;;;;;4940190;28;20043;-65
2022/05/23 07:45:04;;;;;;;26.05;16.00;;;;;;;;;;4942396;28;20076;-66
2022/05/23 07:47:29;;;;;;;26.63;15.20;;;;;;;;;;4939208;28;20043;-65
2022/05/23 07:49:54;;;;;;;21.80;14.18;;;;;;;;;;4946629;28;20046;-65
2022/05/23 07:52:20;;;;;;;23.80;13.80;;;;;;;;;;4944805;28;20047;-65
2022/05/23 08:03:01;;;;;;;20.80;12.35;;;;;;;;;;4939922;28;20034;-65
2022/05/23 08:05:26;;;;;;;22.67;14.15;;;;;;;;;;4940384;28;20028;-65
2022/05/23 08:07:52;;;;;;;23.65;13.68;;;;;;;;;;4942114;28;20048;-65
2022/05/23 08:10:17;;;;;;;25.63;14.20;;;;;;;;;;4939630;28;20055;-65
2022/05/23 08:12:47;;;;;;;20.15;11.93;;;;;;;;;;4935595;28;20126;-65
2022/05/23 08:15:13;;;;;;;17.52;10.00;;;;;;;;;;4940822;28;20053;-65
2022/05/23 08:17:39;;;;;;;8.90;6.32;;;;;;;;;;4957428;28;20050;-65
2022/05/23 08:20:05;;;;;;;14.80;8.15;;;;;;;;;;4943571;28;20467;-65
2022/05/23 08:22:31;;;;;;;15.13;9.32;;;;;;;;;;4940810;28;20063;-65
2022/05/23 08:24:57;;;;;;;15.90;9.70;;;;;;;;;;4945149;28;20125;-65
2022/05/23 08:27:23;;;;;;;17.10;10.75;;;;;;;;;;4938541;28;20397;-65
2022/05/23 08:29:49;;;;;;;17.08;10.45;;;;;;;;;;4939229;28;20488;-65
2022/05/23 08:32:15;;;;;;;19.77;11.80;;;;;;;;;;4939160;29;20236;-65
2022/05/23 08:34:41;;;;;;;23.75;13.88;;;;;;;;;;4943790;28;20134;-65
2022/05/23 08:37:06;;;;;;;24.20;14.25;;;;;;;;;;4940158;28;20394;-65
2022/05/23 08:39:32;;;;;;;30.08;16.02;;;;;;;;;;4939146;28;20768;-65
2022/05/23 08:42:05;;;;;;;26.30;14.75;;;;;;;;;;4938264;29;20031;-65
2022/05/23 08:44:44;;;;;;;20.85;13.95;;;;;;;;;;4940148;29;20028;-65
2022/05/23 08:47:55;;;;;;;23.00;13.98;;;;;;;;;;4943823;28;20419;-65
2022/05/23 08:50:28;;;;;;;17.20;11.55;;;;;;;;;;4936824;29;20078;-65
2022/05/23 08:53:01;;;;;;;14.68;9.43;;;;;;;;;;4937213;29;20050;-65
2022/05/23 08:55:30;;;;;;;12.95;6.82;;;;;;;;;;4934589;29;20048;-65
2022/05/23 08:58:18;;;;;;;11.13;6.95;;;;;;;;;;4941907;28;20047;-65
2022/05/23 09:00:54;;;;;;;9.50;6.10;;;;;;;;;;4940984;28;20127;-65
2022/05/23 09:03:28;;;;;;;7.55;4.93;;;;;;;;;;4939249;28;20093;-65
2022/05/23 09:05:55;;;;;;;;;;;;;;;;;;4937081;29;20040;-65
2022/05/23 09:08:23;;;;;;;6.28;3.95;;;;;;;;;;4940715;28;20434;-65
2022/05/23 09:10:55;;;;;;;4.78;3.80;;;;;;;;;;4937219;29;20035;-65
2022/05/23 09:13:23;;;;;;;5.85;3.95;;;;;;;;;;4933898;28;20036;-65
2022/05/23 09:15:52;;;;;;;4.95;3.78;;;;;;;;;;4937934;28;20043;-65
2022/05/23 09:18:22;;;;;;;5.60;3.75;;;;;;;;;;4943595;28;20120;-65
2022/05/23 09:20:51;;;;;;;5.00;3.53;;;;;;;;;;4937626;28;20558;-65
2022/05/23 09:23:31;;;;;;;6.15;3.83;;;;;;;;;;4937659;28;20031;-65
2022/05/23 09:25:59;;;;;;;7.60;3.60;;;;;;;;;;4938953;29;20608;-65
2022/05/23 09:28:31;;;;;;;5.28;3.95;;;;;;;;;;4942669;28;20114;-65
2022/05/23 09:31:37;;;;;;;8.00;4.10;;;;;;;;;;4938239;28;20096;-65
2022/05/23 09:34:03;;;;;;;7.70;4.03;;;;;;;;;;4961573;28;20038;-65
2022/05/23 09:36:33;;;;;;;6.22;4.50;;;;;;;;;;4943147;28;20127;-65
2022/05/23 09:39:03;;;;;;;5.45;4.28;;;;;;;;;;4940911;28;20020;-65
2022/05/23 09:49:49;;;;;;;6.18;4.22;;;;;;;;;;4941952;28;20113;-65
2022/05/23 09:52:31;;;;;;;6.78;4.25;;;;;;;;;;4943298;28;20051;-65
2022/05/23 09:55:00;;;;;;;7.30;4.00;;;;;;;;;;4942428;28;20220;-65
2022/05/23 09:57:49;;;;;;;9.15;3.40;;;;;;;;;;4938708;28;20063;-65
2022/05/23 10:00:23;;;;;;;3.30;2.85;;;;;;;;;;4944815;28;20047;-65
2022/05/23 10:02:54;;;;;;;7.55;3.25;;;;;;;;;;4942425;28;20089;-65
2022/05/23 10:05:25;;;;;;;5.97;3.17;;;;;;;;;;4932957;28;20067;-65
2022/05/23 10:07:59;;;;;;;4.88;3.42;;;;;;;;;;4919435;28;20049;-65
2022/05/23 10:10:26;;;;;;;4.80;3.10;;;;;;;;;;4967426;28;20053;-65
2022/05/23 10:13:10;;;;;;;6.25;3.38;;;;;;;;;;4940115;28;20050;-65
2022/05/23 10:15:45;;;;;;;6.45;3.53;;;;;;;;;;4939473;28;20031;-65
2022/05/23 10:18:19;;;;;;;7.32;3.40;;;;;;;;;;4951893;28;20050;-65
2022/05/23 10:20:45;;;;;;;5.00;3.50;;;;;;;;;;4946037;28;20065;-65
2022/05/23 10:23:15;;;;;;;4.47;3.58;;;;;;;;;;4944272;28;20118;-65
2022/05/23 10:25:49;;;;;;;6.40;3.60;;;;;;;;;;4943284;28;20639;-65
2022/05/23 10:28:22;;;;;;;4.90;3.60;;;;;;;;;;4940751;28;20057;-65
2022/05/23 10:30:58;;;;;;;6.20;3.58;;;;;;;;;;4950365;28;20504;-64
2022/05/23 10:33:27;;;;;;;4.18;3.42;;;;;;;;;;4931537;28;20130;-64
2022/05/23 10:36:09;;;;;;;5.00;3.38;;;;;;;;;;4942553;28;20046;-65
2022/05/23 10:44:35;;;;;;;11.18;6.90;;;;;;;;;;4950840;28;20086;-65
2022/05/23 10:47:42;;;;;;;10.93;7.38;;;;;;;;;;4942796;28;20133;-65
2022/05/23 10:50:40;;;;;;;12.35;8.05;;;;;;;;;;4957640;28;20478;-65
2022/05/23 10:53:18;;;;;;;15.40;9.23;;;;;;;;;;4988923;28;20127;-64
2022/05/23 10:55:53;;;;;;;12.90;8.55;;;;;;;;;;4941511;28;20081;-64
2022/05/23 10:58:36;;;;;;;17.88;9.18;;;;;;;;;;4932388;28;20043;-64
2022/05/23 11:01:26;;;;;;;17.55;9.27;;;;;;;;;;4936561;28;20047;-65
2022/05/23 11:04:05;;;;;;;14.50;9.75;;;;;;;;;;4933997;28;20055;-65
2022/05/23 11:06:41;;;;;;;19.42;10.90;;;;;;;;;;4937321;28;20070;-65
2022/05/23 11:09:22;;;;;;;21.27;11.18;;;;;;;;;;4937981;29;20120;-65
2022/05/23 11:12:08;;;;;;;18.40;9.32;;;;;;;;;;4935639;28;20106;-65
2022/05/23 11:14:52;;;;;;;14.55;7.88;;;;;;;;;;4936909;29;20050;-65
2022/05/23 11:17:29;;;;;;;;;;;;;;;;;;4937842;28;20133;-64
2022/05/23 11:20:16;;;;;;;10.48;6.03;;;;;;;;;;4941002;28;19922;-65
2022/05/23 11:22:50;;;;;;;33.47;24.95;;;;;;;;;;4938418;28;20466;-64
2022/05/23 11:25:36;;;;;;;9.15;6.30;;;;;;;;;;4936150;28;20061;-65
2022/05/23 11:33:50;;;;;;;10.40;6.60;;;;;;;;;;4940488;28;20577;-65
2022/05/23 11:36:24;;;;;;;11.48;6.95;;;;;;;;;;4932564;28;20039;-64
2022/05/23 11:38:51;;;;;;;10.75;6.88;;;;;;;;;;4938916;29;20056;-65
2022/05/23 11:41:30;;;;;;;12.18;6.90;;;;;;;;;;4934464;28;20047;-65
2022/05/23 11:43:55;;;;;;;12.00;6.72;;;;;;;;;;4938893;28;20109;-65
2022/05/23 11:47:03;;;;;;;15.23;6.32;;;;;;;;;;4938353;28;20039;-64
2022/05/23 11:49:43;;;;;;;11.90;7.28;;;;;;;;;;4962670;28;20055;-65
2022/05/23 11:52:23;;;;;;;11.20;7.20;;;;;;;;;;4962391;28;20064;-65
2022/05/23 11:54:48;;;;;;;11.27;6.97;;;;;;;;;;4957516;28;20525;-65
2022/05/23 11:57:31;;;;;;;9.98;6.32;;;;;;;;;;4967073;28;20083;-65
2022/05/23 11:59:56;;;;;;;12.48;7.03;;;;;;;;;;5019124;28;20049;-65
2022/05/23 12:02:26;;;;;;;12.90;8.00;;;;;;;;;;4943209;28;20153;-65
2022/05/23 12:04:52;;;;;;;10.05;7.18;;;;;;;;;;4946170;28;20054;-65
2022/05/23 12:07:44;;;;;;;14.18;7.63;;;;;;;;;;4974173;28;20159;-64
2022/05/23 12:10:21;;;;;;;12.20;7.35;;;;;;;;;;4944871;28;20149;-65
2022/05/23 12:12:49;;;;;;;14.00;7.00;;;;;;;;;;4950027;28;20044;-64
2022/05/23 12:15:43;;;;;;;22.80;7.93;;;;;;;;;;4951180;28;20041;-65
2022/05/23 12:18:19;;;;;;;17.83;9.50;;;;;;;;;;4943845;28;20130;-66
2022/05/23 12:20:48;;;;;;;14.68;9.75;;;;;;;;;;4949922;28;20518;-66
2022/05/23 12:23:29;;;;;;;18.88;10.82;;;;;;;;;;4949564;28;20130;-65
2022/05/23 12:26:05;;;;;;;14.57;9.93;;;;;;;;;;4941384;28;20100;-65
2022/05/23 12:28:51;;;;;;;15.73;10.50;;;;;;;;;;4936711;28;20081;-66
2022/05/23 12:31:19;;;;;;;20.20;12.02;;;;;;;;;;4946315;28;20081;-66
2022/05/23 12:34:07;;;;;;;18.75;12.07;;;;;;;;;;4944967;28;20043;-66
2022/05/23 12:36:36;;;;;;;17.40;12.27;;;;;;;;;;5028935;28;20036;-66
2022/05/23 12:39:21;;;;;;;20.20;11.73;;;;;;;;;;4993830;28;20031;-66
2022/05/23 12:42:13;;;;;;;20.52;12.32;;;;;;;;;;4941224;28;20215;-65
2022/05/23 12:45:08;;;;;;;20.83;12.60;;;;;;;;;;4942207;28;20043;-66
2022/05/23 12:47:48;;;;;;;22.05;12.55;;;;;;;;;;4946689;28;20042;-66
2022/05/23 12:50:26;;;;;;;24.58;14.10;;;;;;;;;;4945380;28;20047;-66
2022/05/23 12:53:04;;;;;;;27.83;15.50;;;;;;;;;;4935771;28;20038;-66
2022/05/23 12:55:57;;;;;;;32.45;17.65;;;;;;;;;;4940942;28;20039;-66
2022/05/23 12:58:34;;;;;;;33.50;18.50;;;;;;;;;;4938319;28;20048;-66
2022/05/23 13:01:04;;;;;;;35.60;17.40;;;;;;;;;;4941412;28;20036;-65
2022/05/23 13:03:51;;;;;;;34.92;18.33;;;;;;;;;;4941716;28;20024;-66
2022/05/23 13:06:28;;;;;;;38.83;18.35;;;;;;;;;;4940401;28;20607;-66
2022/05/23 13:09:01;;;;;;;38.22;18.75;;;;;;;;;;4940488;28;20126;-66
2022/05/23 13:11:33;;;;;;;34.45;18.38;;;;;;;;;;4952782;28;20086;-65
2022/05/23 13:14:00;;;;;;;34.47;18.10;;;;;;;;;;4940091;28;20105;-66
2022/05/23 13:16:30;;;;;;;37.42;18.80;;;;;;;;;;4943270;28;20067;-67
2022/05/23 13:22:05;;;;;;;36.53;19.08;;;;;;;;;;4944355;28;20053;-66
2022/05/23 13:24:54;;;;;;;36.95;18.55;;;;;;;;;;4946796;28;20031;-66
2022/05/23 13:27:25;;;;;;;32.95;17.50;;;;;;;;;;4941998;28;20034;-66
2022/05/23 13:30:03;;;;;;;38.03;18.08;;;;;;;;;;4944213;28;20061;-66
2022/05/23 13:32:28;;;;;;;35.60;18.85;;;;;;;;;;4949848;28;20069;-66
2022/05/23 13:34:56;;;;;;;31.23;16.80;;;;;;;;;;4943825;28;20441;-65
2022/05/23 13:37:35;;;;;;;35.53;17.90;;;;;;;;;;4943128;28;20051;-65
2022/05/23 13:40:26;;;;;;;34.92;17.45;;;;;;;;;;4958022;28;20039;-66
2022/05/23 13:43:12;;;;;;;32.53;17.73;;;;;;;;;;4940315;28;20050;-66
2022/05/23 13:45:39;;;;;;;35.15;18.35;;;;;;;;;;4942072;28;20078;-66
2022/05/23 13:48:16;;;;;;;36.38;17.02;;;;;;;;;;4946899;28;20106;-65
2022/05/23 13:50:51;;;;;;;35.88;19.98;;;;;;;;;;4939780;28;20058;-65
2022/05/23 13:53:30;;;;;;;35.90;18.70;;;;;;;;;;4939892;28;20540;-65
2022/05/23 13:55:58;;;;;;;35.28;19.70;;;;;;;;;;4944402;28;20043;-65
2022/05/23 13:58:28;;;;;;;31.92;18.13;;;;;;;;;;4938983;28;20583;-65
2022/05/23 14:01:05;;;;;;;29.65;17.48;;;;;;;;;;4941976;28;20767;-66
2022/05/23 14:03:43;;;;;;;19.48;12.05;;;;;;;;;;4936557;28;20123;-65
2022/05/23 14:06:13;;;;;;;20.60;12.00;;;;;;;;;;4941793;28;20058;-65
2022/05/23 14:08:45;;;;;;;19.77;12.40;;;;;;;;;;4940351;28;20758;-65
2022/05/23 14:11:23;;;;;;;17.77;10.88;;;;;;;;;;4941754;28;20044;-65
2022/05/23 14:13:51;;;;;;;21.02;12.43;;;;;;;;;;4942270;28;20047;-65
2022/05/23 14:16:18;;;;;;;21.00;12.00;;;;;;;;;;4938790;28;20070;-65
2022/05/23 14:18:44;;;;;;;21.00;13.85;;;;;;;;;;4941272;28;20079;-65
2022/05/23 14:21:36;;;;;;;24.90;15.35;;;;;;;;;;4941232;28;20054;-65
2022/05/23 14:24:02;;;;;;;31.20;16.10;;;;;;;;;;4941144;28;20466;-66
2022/05/23 14:26:28;;;;;;;25.05;15.15;;;;;;;;;;4939223;28;20054;-65
2022/05/23 14:28:57;;;;;;;29.02;15.65;;;;;;;;;;4940678;28;20043;-66
2022/05/23 14:31:29;;;;;;;29.05;16.98;;;;;;;;;;4939201;28;20527;-65
2022/05/23 14:34:02;;;;;;;35.63;19.23;;;;;;;;;;4942380;28;20035;-65
2022/05/23 14:36:27;;;;;;;34.53;19.17;;;;;;;;;;4938875;28;20031;-65
2022/05/23 14:38:56;;;;;;;38.83;18.48;;;;;;;;;;4943941;28;20298;-65
2022/05/23 14:41:27;;;;;;;26.85;16.77;;;;;;;;;;4938190;28;20047;-66
2022/05/23 14:44:05;;;;;;;27.80;16.10;;;;;;;;;;4943480;28;20054;-65
2022/05/23 14:46:34;;;;;;;21.73;14.40;;;;;;;;;;4940981;28;20052;-65
2022/05/23 14:49:10;;;;;;;23.75;14.13;;;;;;;;;;4941288;28;20098;-65
2022/05/23 14:51:41;;;;;;;24.08;15.23;;;;;;;;;;4939771;28;20031;-65
2022/05/23 15:00:37;;;;;;;19.58;14.27;;;;;;;;;;4942490;28;20037;-65
2022/05/23 15:02:53;;;;;;;26.75;13.57;;;;;;;;;;4938003;28;20022;-65
2022/05/23 15:05:18;;;;;;;27.10;15.07;;;;;;;;;;4941288;28;20486;-65
2022/05/23 15:07:43;;;;;;;22.42;15.05;;;;;;;;;;4933823;28;20472;-65
2022/05/23 15:10:09;;;;;;;28.20;16.52;;;;;;;;;;4943605;28;20565;-65
2022/05/23 15:12:36;;;;;;;23.83;14.18;;;;;;;;;;4954664;28;20035;-65
2022/05/23 15:15:01;;;;;;;25.00;14.85;;;;;;;;;;4940014;29;20106;-65
2022/05/23 15:17:27;;;;;;;19.73;13.48;;;;;;;;;;4945287;28;20047;-65
2022/05/23 15:19:52;;;;;;;21.08;12.32;;;;;;;;;;4944301;28;20043;-65
2022/05/23 15:22:30;;;;;;;23.52;15.20;;;;;;;;;;4945702;28;20039;-65
2022/05/23 15:24:56;;;;;;;29.20;15.35;;;;;;;;;;4938686;28;20812;-66
2022/05/23 15:27:26;;;;;;;24.80;14.52;;;;;;;;;;4957170;28;20138;-66
2022/05/23 15:29:53;;;;;;;27.92;14.45;;;;;;;;;;4941340;28;20035;-66
2022/05/23 15:32:18;;;;;;;27.10;16.75;;;;;;;;;;4941130;28;20806;-66
2022/05/23 15:34:45;;;;;;;21.63;14.73;;;;;;;;;;4940555;28;20039;-66
2022/05/23 15:37:11;;;;;;;23.10;13.98;;;;;;;;;;4948873;28;20761;-66
2022/05/23 15:39:37;;;;;;;23.27;13.15;;;;;;;;;;4945460;28;20035;-66
2022/05/23 15:42:03;;;;;;;23.75;13.55;;;;;;;;;;4945070;28;20026;-66
2022/05/23 15:44:36;;;;;;;20.98;13.00;;;;;;;;;;4950403;28;20048;-66
2022/05/23 15:47:06;;;;;;;21.23;12.13;;;;;;;;;;4938486;28;20078;-66
2022/05/23 15:49:31;;;;;;;18.98;10.15;;;;;;;;;;4938480;28;20481;-66
2022/05/23 15:51:57;;;;;;;15.38;7.95;;;;;;;;;;4937943;28;20118;-66
2022/05/23 15:54:22;;;;;;;14.02;8.30;;;;;;;;;;4942980;28;20024;-67
2022/05/23 15:56:48;;;;;;;15.13;7.72;;;;;;;;;;4951510;28;20039;-67
2022/05/23 15:59:18;;;;;;;8.30;5.55;;;;;;;;;;4945241;28;20035;-66